createdAt,value
2022-09-03T00:02:14.369Z,1.58
2022-09-03T00:05:06.683Z,1.80
2022-09-03T00:07:54.256Z,1.75
2022-09-03T00:10:30.437Z,1.73
2022-09-03T00:13:03.035Z,1.60
2022-09-03T00:15:33.383Z,1.88
2022-09-03T00:18:13.221Z,2.00
2022-09-03T00:20:54.863Z,1.88
2022-09-03T00:23:24.814Z,1.70
2022-09-03T00:25:58.780Z,1.73
2022-09-03T00:28:41.699Z,1.75
2022-09-03T00:31:21.308Z,1.67
2022-09-03T00:33:52.144Z,1.50
2022-09-03T00:36:28.439Z,2.10
2022-09-03T00:38:55.487Z,1.98
2022-09-03T00:41:45.185Z,1.73
2022-09-03T00:44:33.543Z,1.85
2022-09-03T00:47:10.956Z,1.90
2022-09-03T00:50:15.524Z,1.92
2022-09-03T00:52:52.451Z,1.70
2022-09-03T00:55:45.519Z,1.83
2022-09-03T00:58:26.112Z,1.90
2022-09-03T01:00:52.972Z,1.92
2022-09-03T01:04:07.935Z,1.90
2022-09-03T01:06:45.454Z,1.90
2022-09-03T01:09:44.076Z,1.85
2022-09-03T01:12:16.762Z,2.15
2022-09-03T01:15:28.208Z,2.00
2022-09-03T01:18:30.488Z,1.98
2022-09-03T01:21:15.388Z,1.70
2022-09-03T01:24:14.298Z,1.70
2022-09-03T01:27:20.643Z,2.08
2022-09-03T01:29:54.195Z,1.80
2022-09-03T01:32:58.409Z,1.88
2022-09-03T01:35:37.833Z,1.85
2022-09-03T01:38:22.203Z,1.90
2022-09-03T01:41:24.232Z,2.30
2022-09-03T01:44:00.275Z,1.55
2022-09-03T01:46:37.759Z,1.77
2022-09-03T01:49:11.711Z,1.83
2022-09-03T01:51:39.583Z,1.70
2022-09-03T01:54:18.143Z,1.60
2022-09-03T01:56:52.034Z,1.70
2022-09-03T01:59:33.195Z,1.50
2022-09-03T02:02:20.480Z,1.65
2022-09-03T02:05:14.545Z,1.35
2022-09-03T02:07:44.679Z,1.23
2022-09-03T02:10:16.054Z,1.33
2022-09-03T02:12:49.363Z,1.67
2022-09-03T02:15:20.416Z,1.65
2022-09-03T02:17:50.090Z,2.00
2022-09-03T02:20:20.833Z,2.10
2022-09-03T02:22:49.903Z,1.70
2022-09-03T02:25:17.944Z,1.92
2022-09-03T02:27:46.601Z,1.70
2022-09-03T02:30:13.319Z,1.67
2022-09-03T02:32:40.823Z,1.90
2022-09-03T02:35:08.054Z,1.77
2022-09-03T02:37:35.318Z,2.05
2022-09-03T02:40:06.609Z,1.83
2022-09-03T02:42:33.832Z,2.00
2022-09-03T02:45:22.797Z,2.00
2022-09-03T02:47:53.892Z,1.98
2022-09-03T02:50:20.561Z,1.90
2022-09-03T02:52:48.727Z,1.98
2022-09-03T02:55:15.936Z,2.22
2022-09-03T02:57:43.442Z,2.17
2022-09-03T03:00:10.715Z,1.90
2022-09-03T03:02:37.875Z,1.77
2022-09-03T03:05:05.961Z,2.08
2022-09-03T03:07:37.308Z,1.90
2022-09-03T03:10:04.496Z,1.75
2022-09-03T03:12:31.822Z,1.90
2022-09-03T03:14:58.486Z,1.85
2022-09-03T03:17:26.515Z,1.83
2022-09-03T03:19:53.185Z,2.00
2022-09-03T03:22:20.201Z,1.98
2022-09-03T03:24:46.917Z,1.80
2022-09-03T03:27:15.193Z,1.90
2022-09-03T03:29:42.031Z,1.83
2022-09-03T03:32:09.094Z,2.28
2022-09-03T03:34:35.828Z,1.77
2022-09-03T03:37:02.819Z,2.28
2022-09-03T03:39:29.578Z,1.50
2022-09-03T03:41:56.710Z,1.88
2022-09-03T03:44:23.750Z,1.58
2022-09-03T03:46:50.799Z,1.83
2022-09-03T03:49:17.526Z,2.03
2022-09-03T03:51:44.526Z,1.90
2022-09-03T03:54:11.183Z,1.60
2022-09-03T03:56:41.452Z,1.80
2022-09-03T03:59:08.178Z,1.42
2022-09-03T04:01:35.211Z,1.60
2022-09-03T04:04:02.178Z,1.77
2022-09-03T04:06:29.916Z,1.45
2022-09-03T04:08:56.861Z,2.13
2022-09-03T04:11:24.706Z,1.75
2022-09-03T04:13:51.983Z,1.48
2022-09-03T04:16:24.760Z,1.30
2022-09-03T04:18:52.615Z,1.85
2022-09-03T04:21:37.776Z,1.75
2022-09-03T04:24:05.446Z,1.70
2022-09-03T04:26:34.035Z,1.95
2022-09-03T04:29:03.714Z,1.95
2022-09-03T04:31:31.776Z,1.98
2022-09-03T04:33:59.104Z,2.08
2022-09-03T04:36:28.712Z,1.83
2022-09-03T04:38:58.315Z,2.17
2022-09-03T04:41:27.878Z,2.50
2022-09-03T04:43:56.878Z,2.17
2022-09-03T04:46:34.089Z,2.15
2022-09-03T04:49:02.025Z,2.20
2022-09-03T04:51:30.401Z,2.42
2022-09-03T04:54:01.199Z,2.60
2022-09-03T04:56:32.056Z,2.63
2022-09-03T04:59:09.303Z,2.03
2022-09-03T05:01:39.626Z,2.45
2022-09-03T05:04:07.537Z,2.45
2022-09-03T05:06:35.624Z,2.72
2022-09-03T05:09:03.546Z,3.00
2022-09-03T05:11:31.111Z,2.70
2022-09-03T05:13:59.665Z,2.60
2022-09-03T05:16:28.760Z,2.65
2022-09-03T05:18:57.379Z,2.97
2022-09-03T05:21:24.829Z,2.70
2022-09-03T05:23:52.796Z,2.50
2022-09-03T05:26:22.964Z,2.60
2022-09-03T05:31:21.600Z,2.20
2022-09-03T05:33:51.109Z,2.58
2022-09-03T05:36:20.457Z,2.50
2022-09-03T05:38:50.057Z,2.70
2022-09-03T05:41:18.935Z,2.97
2022-09-03T05:43:51.911Z,2.80
2022-09-03T05:46:19.081Z,2.28
2022-09-03T05:48:45.811Z,2.92
2022-09-03T05:51:18.681Z,3.30
2022-09-03T05:53:47.601Z,3.90
2022-09-03T05:56:19.937Z,3.03
2022-09-03T05:58:49.260Z,3.60
2022-09-03T06:01:19.548Z,3.13
2022-09-03T06:03:48.369Z,3.35
2022-09-03T06:06:16.280Z,3.60
2022-09-03T06:08:44.841Z,3.50
2022-09-03T06:11:12.925Z,4.00
2022-09-03T06:13:40.249Z,3.13
2022-09-03T06:16:07.996Z,3.30
2022-09-03T06:18:35.025Z,3.47
2022-09-03T06:21:04.934Z,3.88
2022-09-03T06:23:32.989Z,3.47
2022-09-03T06:26:05.727Z,3.70
2022-09-03T06:28:34.816Z,3.90
2022-09-03T06:31:03.376Z,4.50
2022-09-03T06:33:31.955Z,4.47
2022-09-03T06:36:00.889Z,4.10
2022-09-03T06:38:32.395Z,4.10
2022-09-03T06:41:13.343Z,3.83
2022-09-03T06:43:42.129Z,4.70
2022-09-03T06:46:14.633Z,4.45
2022-09-03T06:48:42.196Z,5.05
2022-09-03T06:51:16.237Z,4.68
2022-09-03T06:53:45.733Z,4.63
2022-09-03T06:56:26.738Z,4.60
2022-09-03T06:58:55.857Z,3.92
2022-09-03T07:01:26.132Z,4.35
2022-09-03T07:03:58.638Z,4.45
2022-09-03T07:06:27.628Z,5.45
2022-09-03T07:08:55.930Z,4.78
2022-09-03T07:11:26.170Z,4.88
2022-09-03T07:13:54.731Z,4.47
2022-09-03T07:16:27.680Z,4.22
2022-09-03T07:18:55.609Z,4.97
2022-09-03T07:21:27.817Z,4.00
2022-09-03T07:23:56.059Z,4.50
2022-09-03T07:26:30.291Z,3.45
2022-09-03T07:28:58.215Z,3.83
2022-09-03T07:31:28.666Z,3.90
2022-09-03T07:34:00.616Z,3.58
2022-09-03T07:36:35.217Z,4.00
2022-09-03T07:39:04.219Z,4.40
2022-09-03T07:41:33.151Z,4.03
2022-09-03T07:44:06.014Z,3.25
2022-09-03T07:46:37.899Z,3.33
2022-09-03T07:49:06.546Z,2.97
2022-09-03T07:51:37.905Z,3.53
2022-09-03T07:54:08.011Z,3.28
2022-09-03T07:59:05.439Z,3.38
2022-09-03T08:01:33.521Z,3.08
2022-09-03T08:04:01.831Z,3.40
2022-09-03T08:06:30.978Z,3.50
2022-09-03T08:09:05.367Z,3.40
2022-09-03T08:11:36.315Z,2.80
2022-09-03T08:14:06.657Z,2.50
2022-09-03T08:16:37.964Z,3.03
2022-09-03T08:19:05.276Z,2.90
2022-09-03T08:21:32.545Z,3.33
2022-09-03T08:24:02.923Z,3.00
2022-09-03T08:26:44.286Z,3.00
2022-09-03T08:29:15.020Z,2.70
2022-09-03T08:31:41.834Z,2.50
2022-09-03T08:34:08.870Z,3.42
2022-09-03T08:36:37.812Z,2.75
2022-09-03T08:41:46.097Z,2.60
2022-09-03T08:44:30.898Z,3.17
2022-09-03T08:47:23.570Z,4.20
2022-09-03T08:50:28.389Z,2.80
2022-09-03T08:53:07.489Z,3.45
2022-09-03T08:55:47.729Z,2.70
2022-09-03T08:58:22.028Z,2.97
2022-09-03T09:01:06.709Z,2.75
2022-09-03T09:04:02.898Z,2.63
2022-09-03T09:06:45.824Z,2.85
2022-09-03T09:09:18.937Z,2.65
2022-09-03T09:12:16.365Z,2.97
2022-09-03T09:15:07.552Z,2.45
2022-09-03T09:17:59.351Z,2.92
2022-09-03T09:20:43.047Z,2.80
2022-09-03T09:23:21.782Z,2.88
2022-09-03T09:25:50.788Z,2.63
2022-09-03T09:28:23.554Z,2.70
2022-09-03T09:30:54.702Z,3.30
2022-09-03T09:33:22.591Z,2.97
2022-09-03T09:35:50.222Z,2.80
2022-09-03T09:38:32.040Z,2.85
2022-09-03T09:41:09.229Z,2.20
2022-09-03T09:43:36.179Z,2.45
2022-09-03T09:46:25.138Z,3.40
2022-09-03T09:48:57.539Z,2.78
2022-09-03T09:51:31.417Z,3.03
2022-09-03T09:54:01.250Z,3.08
2022-09-03T09:56:28.682Z,3.35
2022-09-03T09:59:09.965Z,3.10
2022-09-03T10:01:39.884Z,3.25
2022-09-03T10:04:22.377Z,3.25
2022-09-03T10:06:58.437Z,2.97
2022-09-03T10:09:31.630Z,2.88
2022-09-03T10:12:19.966Z,3.53
2022-09-03T10:14:59.042Z,3.00
2022-09-03T10:17:58.070Z,2.78
2022-09-03T10:20:52.242Z,2.50
2022-09-03T10:23:25.239Z,2.28
2022-09-03T10:26:08.897Z,2.63
2022-09-03T10:28:42.182Z,2.20
2022-09-03T10:31:29.018Z,2.05
2022-09-03T10:34:02.211Z,2.50
2022-09-03T10:36:36.834Z,2.30
2022-09-03T10:39:20.337Z,2.30
2022-09-03T10:42:08.873Z,1.70
2022-09-03T10:45:04.166Z,1.83
2022-09-03T10:47:49.795Z,1.30
2022-09-03T10:50:27.137Z,1.60
2022-09-03T10:53:18.995Z,1.48
2022-09-03T10:55:55.836Z,1.25
2022-09-03T10:58:46.708Z,1.20
2022-09-03T11:01:47.979Z,1.08
2022-09-03T11:04:44.848Z,1.20
2022-09-03T11:07:15.160Z,1.17
2022-09-03T11:10:13.753Z,1.10
2022-09-03T11:13:09.635Z,1.10
2022-09-03T11:15:47.928Z,1.00
2022-09-03T11:18:21.932Z,1.10
2022-09-03T11:20:51.104Z,1.27
2022-09-03T11:23:19.556Z,0.90
2022-09-03T11:25:52.623Z,0.90
2022-09-03T11:28:57.049Z,1.10
2022-09-03T11:31:35.223Z,1.00
2022-09-03T11:34:23.365Z,0.88
2022-09-03T11:36:50.642Z,0.90
2022-09-03T11:39:33.668Z,0.93
2022-09-03T11:42:09.513Z,1.00
2022-09-03T11:44:47.909Z,1.13
2022-09-03T11:47:47.047Z,0.90
2022-09-03T11:50:33.419Z,1.30
2022-09-03T11:53:23.204Z,0.82
2022-09-03T11:56:02.125Z,0.80
2022-09-03T11:58:34.032Z,0.90
2022-09-03T12:01:04.269Z,0.82
2022-09-03T12:03:47.087Z,0.93
2022-09-03T12:06:32.897Z,0.90
2022-09-03T12:09:35.934Z,1.10
2022-09-03T12:12:24.215Z,1.20
2022-09-03T12:15:41.341Z,0.75
2022-09-03T12:18:33.516Z,1.20
2022-09-03T12:21:08.826Z,1.00
2022-09-03T12:23:43.067Z,0.90
2022-09-03T12:26:16.412Z,1.00
2022-09-03T12:28:48.737Z,1.00
2022-09-03T12:31:30.657Z,1.23
2022-09-03T12:34:07.640Z,1.35
2022-09-03T12:36:39.739Z,1.10
2022-09-03T12:39:15.293Z,1.23
2022-09-03T12:42:04.293Z,1.45
2022-09-03T12:44:35.657Z,1.40
2022-09-03T12:50:08.384Z,1.10
2022-09-03T12:52:56.776Z,1.23
2022-09-03T12:55:43.523Z,1.25
2022-09-03T12:58:14.126Z,1.30
2022-09-03T13:01:09.523Z,0.90
2022-09-03T13:03:50.745Z,0.20
2022-09-03T13:06:22.936Z,0.00
2022-09-03T13:08:58.412Z,0.38
2022-09-03T13:11:26.954Z,0.00
2022-09-03T13:14:11.558Z,0.13
2022-09-03T13:16:38.328Z,0.00
2022-09-03T13:19:20.670Z,0.00
2022-09-03T13:22:03.082Z,0.00
2022-09-03T13:25:08.091Z,0.00
2022-09-03T13:27:58.737Z,0.00
2022-09-03T13:30:55.739Z,0.00
2022-09-03T13:33:29.978Z,0.00
2022-09-03T13:36:13.941Z,0.00
2022-09-03T13:38:52.675Z,0.00
2022-09-03T13:41:50.209Z,0.00
2022-09-03T13:44:23.191Z,0.00
2022-09-03T13:46:56.863Z,0.00
2022-09-03T13:50:20.621Z,0.00
2022-09-03T13:53:09.151Z,0.73
2022-09-03T13:55:53.144Z,0.00
2022-09-03T13:58:31.268Z,0.00
2022-09-03T14:00:59.276Z,0.17
2022-09-03T14:03:42.758Z,0.00
2022-09-03T14:06:34.655Z,0.00
2022-09-03T14:09:31.257Z,0.10
2022-09-03T14:12:01.570Z,0.00
2022-09-03T14:14:55.495Z,0.10
2022-09-03T14:17:25.534Z,0.20
2022-09-03T14:22:26.884Z,0.10
2022-09-03T14:24:59.229Z,0.32
2022-09-03T14:27:29.754Z,0.20
2022-09-03T14:30:27.225Z,0.00
2022-09-03T14:33:06.127Z,0.10
2022-09-03T14:35:52.996Z,0.28
2022-09-03T14:38:32.030Z,0.20
2022-09-03T14:41:14.309Z,0.10
2022-09-03T14:43:59.819Z,0.22
2022-09-03T14:46:56.157Z,0.15
2022-09-03T14:49:46.762Z,0.00
2022-09-03T14:52:49.379Z,0.00
2022-09-03T14:55:21.357Z,0.00
2022-09-03T14:58:20.815Z,1.08
2022-09-03T15:01:11.367Z,0.10
2022-09-03T15:04:17.892Z,0.08
2022-09-03T15:07:02.958Z,0.00
2022-09-03T15:09:37.523Z,0.00
2022-09-03T15:12:13.385Z,0.20
2022-09-03T15:15:07.435Z,0.00
2022-09-03T15:17:46.104Z,0.00
2022-09-03T15:20:24.037Z,0.10
2022-09-03T15:23:28.929Z,0.15
2022-09-03T15:26:29.115Z,0.00
2022-09-03T15:29:15.176Z,0.08
2022-09-03T15:32:00.407Z,0.00
2022-09-03T15:35:03.019Z,0.00
2022-09-03T15:37:36.629Z,0.13
2022-09-03T15:40:47.996Z,0.00
2022-09-03T15:43:31.039Z,0.15
2022-09-03T15:46:01.962Z,0.10
2022-09-03T15:48:34.615Z,0.15
2022-09-03T15:51:10.455Z,0.00
2022-09-03T15:53:46.314Z,0.15
2022-09-03T15:56:28.289Z,0.10
2022-09-03T15:59:15.787Z,0.00
2022-09-03T16:01:57.786Z,0.00
2022-09-03T16:04:54.973Z,0.08
2022-09-03T16:07:39.379Z,0.10
2022-09-03T16:10:51.263Z,0.03
2022-09-03T16:13:45.444Z,0.20
2022-09-03T16:16:24.641Z,0.10
2022-09-03T16:19:09.962Z,0.55
2022-09-03T16:21:58.826Z,0.00
2022-09-03T16:24:47.263Z,0.20
2022-09-03T16:27:36.204Z,0.10
2022-09-03T16:30:12.551Z,0.05
2022-09-03T16:32:51.183Z,0.10
2022-09-03T16:35:44.041Z,0.20
2022-09-03T16:38:44.117Z,0.00
2022-09-03T16:44:03.333Z,0.17
2022-09-03T16:46:50.897Z,0.00
2022-09-03T16:49:29.204Z,0.50
2022-09-03T16:52:37.870Z,0.80
2022-09-03T16:55:24.175Z,0.80
2022-09-03T16:58:10.890Z,0.90
2022-09-03T17:00:49.595Z,0.88
2022-09-03T17:03:55.006Z,0.70
2022-09-03T17:07:11.166Z,0.90
2022-09-03T17:09:59.655Z,0.82
2022-09-03T17:13:10.600Z,0.70
2022-09-03T17:16:02.072Z,0.80
2022-09-03T17:18:51.921Z,0.70
2022-09-03T17:21:32.171Z,0.63
2022-09-03T17:24:21.046Z,0.70
2022-09-03T17:27:21.162Z,0.65
2022-09-03T17:33:12.013Z,0.70
2022-09-03T17:35:47.865Z,1.20
2022-09-03T17:38:49.254Z,1.23
2022-09-03T17:41:22.292Z,0.93
2022-09-03T17:44:26.714Z,1.02
2022-09-03T17:47:12.204Z,1.00
2022-09-03T17:50:05.318Z,0.98
2022-09-03T17:52:44.015Z,1.00
2022-09-03T17:55:33.241Z,1.00
2022-09-03T17:58:08.951Z,1.23
2022-09-03T18:00:51.830Z,1.00
2022-09-03T18:03:30.402Z,1.23
2022-09-03T18:06:01.862Z,1.20
2022-09-03T18:08:44.410Z,0.95
2022-09-03T18:11:18.705Z,1.35
2022-09-03T18:14:00.406Z,1.13
2022-09-03T18:16:29.637Z,0.98
2022-09-03T18:19:29.774Z,1.00
2022-09-03T18:22:18.829Z,1.10
2022-09-03T18:25:12.699Z,1.60
2022-09-03T18:28:15.412Z,1.10
2022-09-03T18:31:01.147Z,1.10
2022-09-03T18:33:46.429Z,1.08
2022-09-03T18:36:33.187Z,1.20
2022-09-03T18:39:46.471Z,1.17
2022-09-03T18:42:52.289Z,1.00
2022-09-03T18:46:28.037Z,0.88
2022-09-03T18:49:16.505Z,1.25
2022-09-03T18:52:16.249Z,1.40
2022-09-03T18:55:20.463Z,1.15
2022-09-03T18:58:46.796Z,1.30
2022-09-03T19:01:55.543Z,1.10
2022-09-03T19:05:14.297Z,1.35
2022-09-03T19:08:27.357Z,1.23
2022-09-03T19:11:37.720Z,1.27
2022-09-03T19:14:32.844Z,1.40
2022-09-03T19:17:29.413Z,1.40
2022-09-03T19:20:20.860Z,1.40
2022-09-03T19:23:06.324Z,1.80
2022-09-03T19:25:51.920Z,1.80
2022-09-03T19:28:42.777Z,1.70
2022-09-03T19:32:07.297Z,1.30
2022-09-03T19:35:14.905Z,1.30
2022-09-03T19:38:40.445Z,1.40
2022-09-03T19:41:48.251Z,1.15
2022-09-03T19:44:58.835Z,1.60
2022-09-03T19:48:12.219Z,1.67
2022-09-03T19:51:03.730Z,1.42
2022-09-03T19:53:53.211Z,1.83
2022-09-03T19:56:46.384Z,1.67
2022-09-03T19:59:39.135Z,1.40
2022-09-03T20:02:24.871Z,1.15
2022-09-03T20:05:16.722Z,1.52
2022-09-03T20:08:03.361Z,0.95
2022-09-03T20:10:30.325Z,1.15
2022-09-03T20:13:10.546Z,1.00
2022-09-03T20:18:25.019Z,1.30
2022-09-03T20:21:10.633Z,1.08
2022-09-03T20:23:43.352Z,1.00
2022-09-03T20:26:51.797Z,1.10
2022-09-03T20:29:42.647Z,1.48
2022-09-03T20:32:36.075Z,2.63
2022-09-03T20:35:22.911Z,3.20
2022-09-03T20:38:26.620Z,2.83
2022-09-03T20:40:58.657Z,3.72
2022-09-03T20:43:42.180Z,3.45
2022-09-03T20:46:18.472Z,3.05
2022-09-03T20:48:49.191Z,2.92
2022-09-03T20:51:28.424Z,2.47
2022-09-03T20:54:21.186Z,2.43
2022-09-03T20:57:00.337Z,1.95
2022-09-03T20:59:53.209Z,2.55
2022-09-03T21:02:38.978Z,3.33
2022-09-03T21:05:29.140Z,2.80
2022-09-03T21:10:34.253Z,2.95
2022-09-03T21:13:04.420Z,2.25
2022-09-03T21:18:31.899Z,2.90
2022-09-03T21:21:09.575Z,3.45
2022-09-03T21:23:42.569Z,2.35
2022-09-03T21:26:25.491Z,2.20
2022-09-03T21:29:05.122Z,2.60
2022-09-03T21:31:41.785Z,3.80
2022-09-03T21:34:14.151Z,2.47
2022-09-03T21:36:43.532Z,3.35
2022-09-03T21:39:15.921Z,1.58
2022-09-03T21:42:03.207Z,1.80
2022-09-03T21:44:53.335Z,2.17
2022-09-03T21:52:43.842Z,2.15
2022-09-03T21:55:37.953Z,1.92
2022-09-03T21:58:25.906Z,2.30
2022-09-03T22:00:59.367Z,1.90
2022-09-03T22:03:26.588Z,2.20
2022-09-03T22:06:00.990Z,2.45
2022-09-03T22:08:50.949Z,2.28
2022-09-03T22:11:29.907Z,2.20
2022-09-03T22:14:06.847Z,2.22
2022-09-03T22:16:43.894Z,2.38
2022-09-03T22:19:10.570Z,2.20
2022-09-03T22:22:01.335Z,2.42
2022-09-03T22:24:47.593Z,2.80
2022-09-03T22:27:43.945Z,2.40
2022-09-03T22:30:21.162Z,2.13
2022-09-03T22:32:48.132Z,2.00
2022-09-03T22:35:30.957Z,1.90
2022-09-03T22:38:21.580Z,2.72
2022-09-03T22:40:52.272Z,2.42
2022-09-03T22:43:25.212Z,2.40
2022-09-03T22:46:06.178Z,2.33
2022-09-03T22:48:52.526Z,3.55
2022-09-03T22:51:21.900Z,2.75
2022-09-03T22:54:20.893Z,3.00
2022-09-03T22:56:48.945Z,2.60
2022-09-03T22:59:51.872Z,2.40
2022-09-03T23:02:22.647Z,2.65
2022-09-03T23:05:07.413Z,2.75
2022-09-03T23:07:40.080Z,2.63
2022-09-03T23:10:14.546Z,2.88
2022-09-03T23:13:03.284Z,2.78
2022-09-03T23:15:32.256Z,2.55
2022-09-03T23:18:15.727Z,3.53
2022-09-03T23:20:47.412Z,3.40
2022-09-03T23:23:25.951Z,2.88
2022-09-03T23:26:12.469Z,3.40
2022-09-03T23:28:45.311Z,3.13
2022-09-03T23:31:25.121Z,2.38
2022-09-03T23:33:53.814Z,3.10
2022-09-03T23:36:58.253Z,4.13
2022-09-03T23:39:49.650Z,3.28
2022-09-03T23:42:16.660Z,3.50
2022-09-03T23:44:46.279Z,3.67
2022-09-03T23:47:45.628Z,4.07
2022-09-03T23:50:31.072Z,2.85
2022-09-03T23:53:44.138Z,2.97
2022-09-03T23:56:27.657Z,3.33
2022-09-03T23:59:13.238Z,2.42
